sensor_id;sensor_type;location;lat;lon;timestamp;temperature;humidity
22132;DHT22;11232;51.748;19.390;2022-12-18T00:01:33;-3.50;99.90
22132;DHT22;11232;51.748;19.390;2022-12-18T00:04:00;-3.60;99.90
22132;DHT22;11232;51.748;19.390;2022-12-18T00:06:27;-3.60;99.90
22132;DHT22;11232;51.748;19.390;2022-12-18T00:08:56;-3.80;99.90
22132;DHT22;11232;51.748;19.390;2022-12-18T00:11:24;-3.30;99.90
22132;DHT22;11232;51.748;19.390;2022-12-18T00:13:51;-3.50;99.90
22132;DHT22;11232;51.748;19.390;2022-12-18T00:16:19;-3.50;99.90
22132;DHT22;11232;51.748;19.390;2022-12-18T00:18:47;-3.50;99.90
22132;DHT22;11232;51.748;19.390;2022-12-18T00:21:13;-3.50;99.90
22132;DHT22;11232;51.748;19.390;2022-12-18T00:23:41;-3.60;99.90
22132;DHT22;11232;51.748;19.390;2022-12-18T00:26:10;-2.50;99.90
22132;DHT22;11232;51.748;19.390;2022-12-18T00:28:36;-3.60;99.90
22132;DHT22;11232;51.748;19.390;2022-12-18T00:31:08;-3.80;99.90
22132;DHT22;11232;51.748;19.390;2022-12-18T00:33:34;-3.60;99.90
22132;DHT22;11232;51.748;19.390;2022-12-18T00:36:05;-3.60;99.90
22132;DHT22;11232;51.748;19.390;2022-12-18T00:38:32;-3.60;99.90
22132;DHT22;11232;51.748;19.390;2022-12-18T00:40:58;-3.60;99.90
22132;DHT22;11232;51.748;19.390;2022-12-18T00:43:24;-3.60;99.90
22132;DHT22;11232;51.748;19.390;2022-12-18T00:45:49;-3.60;99.90
22132;DHT22;11232;51.748;19.390;2022-12-18T00:48:15;-3.70;99.90
22132;DHT22;11232;51.748;19.390;2022-12-18T00:50:41;-3.70;99.90
22132;DHT22;11232;51.748;19.390;2022-12-18T00:53:09;-3.60;99.90
22132;DHT22;11232;51.748;19.390;2022-12-18T00:55:36;-3.50;99.90
22132;DHT22;11232;51.748;19.390;2022-12-18T00:58:02;-3.60;99.90
22132;DHT22;11232;51.748;19.390;2022-12-18T01:00:28;-1.80;99.90
22132;DHT22;11232;51.748;19.390;2022-12-18T01:02:53;-3.60;99.90
22132;DHT22;11232;51.748;19.390;2022-12-18T01:05:19;-3.80;99.90
22132;DHT22;11232;51.748;19.390;2022-12-18T01:07:45;-1.00;99.90
22132;DHT22;11232;51.748;19.390;2022-12-18T01:10:11;-3.60;99.90
22132;DHT22;11232;51.748;19.390;2022-12-18T01:12:38;-3.70;99.90
22132;DHT22;11232;51.748;19.390;2022-12-18T01:15:04;-3.70;99.90
22132;DHT22;11232;51.748;19.390;2022-12-18T01:17:30;-3.50;99.90
22132;DHT22;11232;51.748;19.390;2022-12-18T01:19:56;-2.00;99.90
22132;DHT22;11232;51.748;19.390;2022-12-18T01:22:21;-3.60;99.90
22132;DHT22;11232;51.748;19.390;2022-12-18T01:24:47;-3.50;99.90
22132;DHT22;11232;51.748;19.390;2022-12-18T01:27:13;-3.50;99.90
22132;DHT22;11232;51.748;19.390;2022-12-18T01:29:38;-3.50;99.90
22132;DHT22;11232;51.748;19.390;2022-12-18T01:32:04;-3.70;99.90
22132;DHT22;11232;51.748;19.390;2022-12-18T01:34:30;-2.40;99.90
22132;DHT22;11232;51.748;19.390;2022-12-18T01:36:55;-3.70;99.90
22132;DHT22;11232;51.748;19.390;2022-12-18T01:39:21;-3.70;99.90
22132;DHT22;11232;51.748;19.390;2022-12-18T01:41:46;-3.70;99.90
22132;DHT22;11232;51.748;19.390;2022-12-18T01:47:22;-3.60;99.90
22132;DHT22;11232;51.748;19.390;2022-12-18T01:49:49;-3.60;99.90
22132;DHT22;11232;51.748;19.390;2022-12-18T01:52:15;-3.50;99.90
22132;DHT22;11232;51.748;19.390;2022-12-18T01:54:42;-3.50;99.90
22132;DHT22;11232;51.748;19.390;2022-12-18T01:57:07;-3.60;99.90
22132;DHT22;11232;51.748;19.390;2022-12-18T01:59:33;-3.60;99.90
22132;DHT22;11232;51.748;19.390;2022-12-18T02:02:02;-3.60;99.90
22132;DHT22;11232;51.748;19.390;2022-12-18T02:04:28;-3.60;99.90
22132;DHT22;11232;51.748;19.390;2022-12-18T02:12:43;-3.60;99.90
22132;DHT22;11232;51.748;19.390;2022-12-18T02:18:07;-3.60;99.90
22132;DHT22;11232;51.748;19.390;2022-12-18T02:20:45;-3.70;99.90
22132;DHT22;11232;51.748;19.390;2022-12-18T02:28:59;-3.60;99.90
22132;DHT22;11232;51.748;19.390;2022-12-18T02:31:29;-3.60;99.90
22132;DHT22;11232;51.748;19.390;2022-12-18T02:34:00;-2.40;99.90
22132;DHT22;11232;51.748;19.390;2022-12-18T02:36:28;-3.70;99.90
22132;DHT22;11232;51.748;19.390;2022-12-18T02:38:55;-3.80;99.90
22132;DHT22;11232;51.748;19.390;2022-12-18T02:41:22;-3.70;99.90
22132;DHT22;11232;51.748;19.390;2022-12-18T02:43:52;-3.70;99.90
22132;DHT22;11232;51.748;19.390;2022-12-18T02:46:40;-3.80;99.90
22132;DHT22;11232;51.748;19.390;2022-12-18T02:49:28;-3.60;99.90
22132;DHT22;11232;51.748;19.390;2022-12-18T02:52:07;-3.60;99.90
22132;DHT22;11232;51.748;19.390;2022-12-18T02:54:55;-3.60;99.90
22132;DHT22;11232;51.748;19.390;2022-12-18T03:00:16;-3.70;99.90
22132;DHT22;11232;51.748;19.390;2022-12-18T03:05:26;-3.80;99.90
22132;DHT22;11232;51.748;19.390;2022-12-18T03:07:57;-3.70;99.90
22132;DHT22;11232;51.748;19.390;2022-12-18T03:10:31;-3.70;99.90
22132;DHT22;11232;51.748;19.390;2022-12-18T03:13:13;-3.70;99.90
22132;DHT22;11232;51.748;19.390;2022-12-18T03:15:49;-3.70;99.90
22132;DHT22;11232;51.748;19.390;2022-12-18T03:18:26;-3.70;99.90
22132;DHT22;11232;51.748;19.390;2022-12-18T03:20:55;-3.90;99.90
22132;DHT22;11232;51.748;19.390;2022-12-18T03:23:28;-3.70;99.90
22132;DHT22;11232;51.748;19.390;2022-12-18T03:25:58;-3.60;99.90
22132;DHT22;11232;51.748;19.390;2022-12-18T03:28:28;-3.70;99.90
22132;DHT22;11232;51.748;19.390;2022-12-18T03:30:57;-4.00;99.90
22132;DHT22;11232;51.748;19.390;2022-12-18T03:33:38;-3.90;99.90
22132;DHT22;11232;51.748;19.390;2022-12-18T03:36:05;-3.90;99.90
22132;DHT22;11232;51.748;19.390;2022-12-18T03:38:31;-3.80;99.90
22132;DHT22;11232;51.748;19.390;2022-12-18T03:41:24;-4.00;99.90
22132;DHT22;11232;51.748;19.390;2022-12-18T03:44:13;-4.10;99.90
22132;DHT22;11232;51.748;19.390;2022-12-18T03:49:38;-3.90;99.90
22132;DHT22;11232;51.748;19.390;2022-12-18T03:55:05;-3.90;99.90
22132;DHT22;11232;51.748;19.390;2022-12-18T03:57:32;-4.00;99.90
22132;DHT22;11232;51.748;19.390;2022-12-18T04:00:08;-4.20;99.90
22132;DHT22;11232;51.748;19.390;2022-12-18T04:02:36;-4.10;99.90
22132;DHT22;11232;51.748;19.390;2022-12-18T04:05:05;-4.20;99.90
22132;DHT22;11232;51.748;19.390;2022-12-18T04:07:31;-4.20;99.90
22132;DHT22;11232;51.748;19.390;2022-12-18T04:09:58;-4.40;99.90
22132;DHT22;11232;51.748;19.390;2022-12-18T04:12:26;-4.40;99.90
22132;DHT22;11232;51.748;19.390;2022-12-18T04:14:52;-4.50;99.90
22132;DHT22;11232;51.748;19.390;2022-12-18T04:17:17;-3.60;99.90
22132;DHT22;11232;51.748;19.390;2022-12-18T04:19:43;-4.60;99.90
22132;DHT22;11232;51.748;19.390;2022-12-18T04:22:10;-2.10;99.90
22132;DHT22;11232;51.748;19.390;2022-12-18T04:24:35;-4.20;99.90
22132;DHT22;11232;51.748;19.390;2022-12-18T04:27:01;-4.20;99.90
22132;DHT22;11232;51.748;19.390;2022-12-18T04:29:27;-4.20;99.90
22132;DHT22;11232;51.748;19.390;2022-12-18T04:31:52;-4.20;99.90
22132;DHT22;11232;51.748;19.390;2022-12-18T04:34:18;-4.20;99.90
22132;DHT22;11232;51.748;19.390;2022-12-18T04:36:43;-4.20;99.90
22132;DHT22;11232;51.748;19.390;2022-12-18T04:39:09;-4.20;99.90
22132;DHT22;11232;51.748;19.390;2022-12-18T04:41:35;-4.20;99.90
22132;DHT22;11232;51.748;19.390;2022-12-18T04:44:00;-4.20;99.90
22132;DHT22;11232;51.748;19.390;2022-12-18T04:46:26;-4.20;99.90
22132;DHT22;11232;51.748;19.390;2022-12-18T04:48:52;-4.10;99.90
22132;DHT22;11232;51.748;19.390;2022-12-18T04:51:17;-4.20;99.90
22132;DHT22;11232;51.748;19.390;2022-12-18T04:53:43;-2.80;99.90
22132;DHT22;11232;51.748;19.390;2022-12-18T04:56:11;-4.30;99.90
22132;DHT22;11232;51.748;19.390;2022-12-18T04:58:38;-2.00;99.90
22132;DHT22;11232;51.748;19.390;2022-12-18T05:01:05;-4.10;99.90
22132;DHT22;11232;51.748;19.390;2022-12-18T05:03:31;-3.50;99.90
22132;DHT22;11232;51.748;19.390;2022-12-18T05:05:56;-4.30;99.90
22132;DHT22;11232;51.748;19.390;2022-12-18T05:08:22;-4.30;99.90
22132;DHT22;11232;51.748;19.390;2022-12-18T05:10:48;-4.30;99.90
22132;DHT22;11232;51.748;19.390;2022-12-18T05:13:13;-4.10;99.90
22132;DHT22;11232;51.748;19.390;2022-12-18T05:15:39;-4.30;99.90
22132;DHT22;11232;51.748;19.390;2022-12-18T05:18:04;-4.20;99.90
22132;DHT22;11232;51.748;19.390;2022-12-18T05:20:31;-4.30;99.90
22132;DHT22;11232;51.748;19.390;2022-12-18T05:22:57;-3.20;99.90
22132;DHT22;11232;51.748;19.390;2022-12-18T05:25:23;-4.60;99.90
22132;DHT22;11232;51.748;19.390;2022-12-18T05:27:48;-4.10;99.90
22132;DHT22;11232;51.748;19.390;2022-12-18T05:30:15;-4.10;99.90
22132;DHT22;11232;51.748;19.390;2022-12-18T05:32:41;-4.10;99.90
22132;DHT22;11232;51.748;19.390;2022-12-18T05:35:09;-4.20;99.90
22132;DHT22;11232;51.748;19.390;2022-12-18T05:37:35;-4.20;99.90
22132;DHT22;11232;51.748;19.390;2022-12-18T05:40:01;-4.10;99.90
22132;DHT22;11232;51.748;19.390;2022-12-18T05:42:27;-4.10;99.90
22132;DHT22;11232;51.748;19.390;2022-12-18T05:44:52;-4.20;99.90
22132;DHT22;11232;51.748;19.390;2022-12-18T05:47:18;-4.30;99.90
22132;DHT22;11232;51.748;19.390;2022-12-18T05:49:43;-4.20;99.90
22132;DHT22;11232;51.748;19.390;2022-12-18T05:52:09;-3.80;99.90
22132;DHT22;11232;51.748;19.390;2022-12-18T05:54:35;-4.30;99.90
22132;DHT22;11232;51.748;19.390;2022-12-18T05:57:00;-4.30;99.90
22132;DHT22;11232;51.748;19.390;2022-12-18T05:59:26;-4.40;99.90
22132;DHT22;11232;51.748;19.390;2022-12-18T06:01:52;-4.40;99.90
22132;DHT22;11232;51.748;19.390;2022-12-18T06:04:17;-4.50;99.90
22132;DHT22;11232;51.748;19.390;2022-12-18T06:06:43;-1.90;99.90
22132;DHT22;11232;51.748;19.390;2022-12-18T06:09:08;-4.20;99.90
22132;DHT22;11232;51.748;19.390;2022-12-18T06:11:38;-4.30;99.90
22132;DHT22;11232;51.748;19.390;2022-12-18T06:14:05;-4.20;99.90
22132;DHT22;11232;51.748;19.390;2022-12-18T06:16:34;-4.10;99.90
22132;DHT22;11232;51.748;19.390;2022-12-18T06:19:02;-4.50;99.90
22132;DHT22;11232;51.748;19.390;2022-12-18T06:21:29;-4.20;99.90
22132;DHT22;11232;51.748;19.390;2022-12-18T06:23:54;-4.40;99.90
22132;DHT22;11232;51.748;19.390;2022-12-18T06:26:20;-4.50;99.90
22132;DHT22;11232;51.748;19.390;2022-12-18T06:28:46;-4.40;99.90
22132;DHT22;11232;51.748;19.390;2022-12-18T06:31:12;-4.60;99.90
22132;DHT22;11232;51.748;19.390;2022-12-18T06:33:38;-4.40;99.90
22132;DHT22;11232;51.748;19.390;2022-12-18T06:36:10;-4.30;99.90
22132;DHT22;11232;51.748;19.390;2022-12-18T06:38:39;-4.30;99.90
22132;DHT22;11232;51.748;19.390;2022-12-18T06:41:13;-4.40;99.90
22132;DHT22;11232;51.748;19.390;2022-12-18T06:43:39;-4.20;99.90
22132;DHT22;11232;51.748;19.390;2022-12-18T06:46:05;-4.50;99.90
22132;DHT22;11232;51.748;19.390;2022-12-18T06:48:31;-4.50;99.90
22132;DHT22;11232;51.748;19.390;2022-12-18T06:50:58;-4.30;99.90
22132;DHT22;11232;51.748;19.390;2022-12-18T06:53:23;-4.50;99.90
22132;DHT22;11232;51.748;19.390;2022-12-18T06:55:49;-4.30;99.90
22132;DHT22;11232;51.748;19.390;2022-12-18T06:58:15;-4.40;99.90
22132;DHT22;11232;51.748;19.390;2022-12-18T07:00:41;-4.30;99.90
22132;DHT22;11232;51.748;19.390;2022-12-18T07:03:07;-4.20;99.90
22132;DHT22;11232;51.748;19.390;2022-12-18T07:05:32;-4.20;99.90
22132;DHT22;11232;51.748;19.390;2022-12-18T07:07:59;-4.20;99.90
22132;DHT22;11232;51.748;19.390;2022-12-18T07:10:24;-4.20;99.90
22132;DHT22;11232;51.748;19.390;2022-12-18T07:12:50;-4.10;99.90
22132;DHT22;11232;51.748;19.390;2022-12-18T07:15:16;-4.00;99.90
22132;DHT22;11232;51.748;19.390;2022-12-18T07:17:41;-3.90;99.90
22132;DHT22;11232;51.748;19.390;2022-12-18T07:20:07;-4.00;99.90
22132;DHT22;11232;51.748;19.390;2022-12-18T07:22:33;-3.80;99.90
22132;DHT22;11232;51.748;19.390;2022-12-18T07:24:59;-3.80;99.90
22132;DHT22;11232;51.748;19.390;2022-12-18T07:27:24;-3.80;99.90
22132;DHT22;11232;51.748;19.390;2022-12-18T07:29:50;-3.90;99.90
22132;DHT22;11232;51.748;19.390;2022-12-18T07:32:16;-3.00;99.90
22132;DHT22;11232;51.748;19.390;2022-12-18T07:34:41;-4.00;99.90
22132;DHT22;11232;51.748;19.390;2022-12-18T07:37:07;-4.10;99.90
22132;DHT22;11232;51.748;19.390;2022-12-18T07:39:32;-3.90;99.90
22132;DHT22;11232;51.748;19.390;2022-12-18T07:41:58;-3.90;99.90
22132;DHT22;11232;51.748;19.390;2022-12-18T07:44:42;-3.70;99.90
22132;DHT22;11232;51.748;19.390;2022-12-18T07:47:08;-3.70;99.90
22132;DHT22;11232;51.748;19.390;2022-12-18T07:49:34;-3.70;99.90
22132;DHT22;11232;51.748;19.390;2022-12-18T07:51:59;-3.60;99.90
22132;DHT22;11232;51.748;19.390;2022-12-18T07:54:25;-3.60;99.90
22132;DHT22;11232;51.748;19.390;2022-12-18T07:56:51;-3.50;99.90
22132;DHT22;11232;51.748;19.390;2022-12-18T07:59:17;-3.50;99.90
22132;DHT22;11232;51.748;19.390;2022-12-18T08:01:43;-3.40;99.90
22132;DHT22;11232;51.748;19.390;2022-12-18T08:04:09;-3.80;99.90
22132;DHT22;11232;51.748;19.390;2022-12-18T08:06:35;-3.90;99.90
22132;DHT22;11232;51.748;19.390;2022-12-18T08:09:00;-3.20;99.90
22132;DHT22;11232;51.748;19.390;2022-12-18T08:11:27;-4.00;99.90
22132;DHT22;11232;51.748;19.390;2022-12-18T08:13:54;-2.30;99.90
22132;DHT22;11232;51.748;19.390;2022-12-18T08:16:20;-3.80;99.90
22132;DHT22;11232;51.748;19.390;2022-12-18T08:18:46;-3.90;99.90
22132;DHT22;11232;51.748;19.390;2022-12-18T08:21:15;-3.80;99.90
22132;DHT22;11232;51.748;19.390;2022-12-18T08:23:41;-3.60;99.90
22132;DHT22;11232;51.748;19.390;2022-12-18T08:26:07;-3.60;99.90
22132;DHT22;11232;51.748;19.390;2022-12-18T08:28:34;-1.20;99.90
22132;DHT22;11232;51.748;19.390;2022-12-18T08:30:59;-3.50;99.90
22132;DHT22;11232;51.748;19.390;2022-12-18T08:33:25;-3.40;99.90
22132;DHT22;11232;51.748;19.390;2022-12-18T08:35:52;-3.20;99.90
22132;DHT22;11232;51.748;19.390;2022-12-18T08:38:17;-3.00;99.90
22132;DHT22;11232;51.748;19.390;2022-12-18T08:40:43;-2.20;99.90
22132;DHT22;11232;51.748;19.390;2022-12-18T08:43:12;-2.90;99.90
22132;DHT22;11232;51.748;19.390;2022-12-18T08:45:56;-3.00;99.90
22132;DHT22;11232;51.748;19.390;2022-12-18T08:48:25;-2.10;99.90
22132;DHT22;11232;51.748;19.390;2022-12-18T08:50:58;-3.50;99.90
22132;DHT22;11232;51.748;19.390;2022-12-18T08:53:27;-3.30;99.90
22132;DHT22;11232;51.748;19.390;2022-12-18T08:55:53;-3.30;99.90
22132;DHT22;11232;51.748;19.390;2022-12-18T08:58:19;-3.30;99.90
22132;DHT22;11232;51.748;19.390;2022-12-18T09:00:45;-3.40;99.90
22132;DHT22;11232;51.748;19.390;2022-12-18T09:03:12;-4.50;99.90
22132;DHT22;11232;51.748;19.390;2022-12-18T09:05:38;-4.90;99.90
22132;DHT22;11232;51.748;19.390;2022-12-18T09:08:04;-4.60;99.90
22132;DHT22;11232;51.748;19.390;2022-12-18T09:10:29;-4.40;99.90
22132;DHT22;11232;51.748;19.390;2022-12-18T09:12:55;-4.50;99.90
22132;DHT22;11232;51.748;19.390;2022-12-18T09:15:21;-4.40;99.90
22132;DHT22;11232;51.748;19.390;2022-12-18T09:17:47;-4.20;99.90
22132;DHT22;11232;51.748;19.390;2022-12-18T09:20:13;-4.50;99.90
22132;DHT22;11232;51.748;19.390;2022-12-18T09:22:39;-4.40;99.90
22132;DHT22;11232;51.748;19.390;2022-12-18T09:25:05;-4.30;99.90
22132;DHT22;11232;51.748;19.390;2022-12-18T09:27:33;-4.30;99.90
22132;DHT22;11232;51.748;19.390;2022-12-18T09:29:59;-3.60;99.90
22132;DHT22;11232;51.748;19.390;2022-12-18T09:32:25;-4.60;99.90
22132;DHT22;11232;51.748;19.390;2022-12-18T09:34:50;-4.50;99.90
22132;DHT22;11232;51.748;19.390;2022-12-18T09:37:16;-4.70;99.90
22132;DHT22;11232;51.748;19.390;2022-12-18T09:39:41;-4.50;99.90
22132;DHT22;11232;51.748;19.390;2022-12-18T09:42:19;-4.60;99.90
22132;DHT22;11232;51.748;19.390;2022-12-18T09:44:52;-4.50;99.90
22132;DHT22;11232;51.748;19.390;2022-12-18T09:47:36;-4.20;99.90
22132;DHT22;11232;51.748;19.390;2022-12-18T09:50:22;-1.90;99.90
22132;DHT22;11232;51.748;19.390;2022-12-18T09:52:52;-3.80;99.90
22132;DHT22;11232;51.748;19.390;2022-12-18T09:55:24;-3.90;99.90
22132;DHT22;11232;51.748;19.390;2022-12-18T09:58:02;-4.10;99.90
22132;DHT22;11232;51.748;19.390;2022-12-18T10:00:30;-4.10;99.90
22132;DHT22;11232;51.748;19.390;2022-12-18T10:03:09;-4.50;99.90
22132;DHT22;11232;51.748;19.390;2022-12-18T10:08:33;-4.70;99.90
22132;DHT22;11232;51.748;19.390;2022-12-18T10:11:28;-4.40;99.90
22132;DHT22;11232;51.748;19.390;2022-12-18T10:16:36;-4.50;99.90
22132;DHT22;11232;51.748;19.390;2022-12-18T10:22:08;-4.70;99.90
22132;DHT22;11232;51.748;19.390;2022-12-18T10:25:26;-4.70;99.90
22132;DHT22;11232;51.748;19.390;2022-12-18T10:27:31;-4.90;99.90
22132;DHT22;11232;51.748;19.390;2022-12-18T10:29:57;-5.10;99.90
22132;DHT22;11232;51.748;19.390;2022-12-18T10:32:26;-2.20;99.90
22132;DHT22;11232;51.748;19.390;2022-12-18T10:34:54;-5.00;99.90
22132;DHT22;11232;51.748;19.390;2022-12-18T10:37:23;-3.60;99.90
22132;DHT22;11232;51.748;19.390;2022-12-18T10:40:12;-4.70;99.90
22132;DHT22;11232;51.748;19.390;2022-12-18T10:42:39;-4.50;99.90
22132;DHT22;11232;51.748;19.390;2022-12-18T10:45:14;-4.50;99.90
22132;DHT22;11232;51.748;19.390;2022-12-18T10:47:49;-4.40;99.90
22132;DHT22;11232;51.748;19.390;2022-12-18T10:50:32;-4.00;99.90
22132;DHT22;11232;51.748;19.390;2022-12-18T10:53:00;-4.70;99.90
22132;DHT22;11232;51.748;19.390;2022-12-18T10:55:35;-5.20;99.90
22132;DHT22;11232;51.748;19.390;2022-12-18T10:58:37;-4.90;99.90
22132;DHT22;11232;51.748;19.390;2022-12-18T11:01:13;-3.10;99.90
22132;DHT22;11232;51.748;19.390;2022-12-18T11:06:26;-4.70;99.90
22132;DHT22;11232;51.748;19.390;2022-12-18T11:09:03;-2.90;99.90
22132;DHT22;11232;51.748;19.390;2022-12-18T11:11:29;-2.80;99.90
22132;DHT22;11232;51.748;19.390;2022-12-18T11:14:03;-4.80;99.90
22132;DHT22;11232;51.748;19.390;2022-12-18T11:16:35;-4.70;99.90
22132;DHT22;11232;51.748;19.390;2022-12-18T11:19:34;-5.00;99.90
22132;DHT22;11232;51.748;19.390;2022-12-18T11:22:03;-5.10;99.90
22132;DHT22;11232;51.748;19.390;2022-12-18T11:24:42;-4.90;99.90
22132;DHT22;11232;51.748;19.390;2022-12-18T11:27:16;-2.10;99.90
22132;DHT22;11232;51.748;19.390;2022-12-18T11:29:43;-3.20;99.90
22132;DHT22;11232;51.748;19.390;2022-12-18T11:32:37;-4.90;99.90
22132;DHT22;11232;51.748;19.390;2022-12-18T11:35:10;-4.70;99.90
22132;DHT22;11232;51.748;19.390;2022-12-18T11:37:37;-4.70;99.90
22132;DHT22;11232;51.748;19.390;2022-12-18T11:40:14;-4.90;99.90
22132;DHT22;11232;51.748;19.390;2022-12-18T11:45:34;-4.90;99.90
22132;DHT22;11232;51.748;19.390;2022-12-18T11:48:06;-5.00;99.90
22132;DHT22;11232;51.748;19.390;2022-12-18T11:53:14;-3.00;99.90
22132;DHT22;11232;51.748;19.390;2022-12-18T12:01:22;-5.00;99.90
22132;DHT22;11232;51.748;19.390;2022-12-18T12:12:33;-4.90;99.90
22132;DHT22;11232;51.748;19.390;2022-12-18T12:18:04;-5.10;99.90
22132;DHT22;11232;51.748;19.390;2022-12-18T12:21:01;-4.70;99.90
22132;DHT22;11232;51.748;19.390;2022-12-18T12:28:51;-5.20;99.90
22132;DHT22;11232;51.748;19.390;2022-12-18T12:39:30;-4.80;99.90
22132;DHT22;11232;51.748;19.390;2022-12-18T12:41:57;-4.90;99.90
22132;DHT22;11232;51.748;19.390;2022-12-18T12:44:46;-4.80;99.90
22132;DHT22;11232;51.748;19.390;2022-12-18T12:47:37;-5.00;99.90
22132;DHT22;11232;51.748;19.390;2022-12-18T12:50:11;-5.20;99.90
22132;DHT22;11232;51.748;19.390;2022-12-18T12:52:46;-5.50;99.90
22132;DHT22;11232;51.748;19.390;2022-12-18T12:58:15;-5.30;99.90
22132;DHT22;11232;51.748;19.390;2022-12-18T13:04:02;-4.20;99.90
22132;DHT22;11232;51.748;19.390;2022-12-18T13:06:40;-5.40;99.90
22132;DHT22;11232;51.748;19.390;2022-12-18T13:09:07;-5.40;99.90
22132;DHT22;11232;51.748;19.390;2022-12-18T13:11:40;-2.70;99.90
22132;DHT22;11232;51.748;19.390;2022-12-18T13:14:37;-5.40;99.90
22132;DHT22;11232;51.748;19.390;2022-12-18T13:20:07;-5.30;99.90
22132;DHT22;11232;51.748;19.390;2022-12-18T13:22:35;-5.30;99.90
22132;DHT22;11232;51.748;19.390;2022-12-18T13:25:01;-5.50;99.90
22132;DHT22;11232;51.748;19.390;2022-12-18T13:27:51;-3.30;99.90
22132;DHT22;11232;51.748;19.390;2022-12-18T13:35:42;-5.50;99.90
22132;DHT22;11232;51.748;19.390;2022-12-18T13:38:37;-4.00;99.90
22132;DHT22;11232;51.748;19.390;2022-12-18T13:41:25;-5.80;99.90
22132;DHT22;11232;51.748;19.390;2022-12-18T13:43:55;-5.80;99.90
22132;DHT22;11232;51.748;19.390;2022-12-18T13:46:41;-5.00;99.90
22132;DHT22;11232;51.748;19.390;2022-12-18T13:51:48;-5.60;99.90
22132;DHT22;11232;51.748;19.390;2022-12-18T13:54:42;-5.50;99.90
22132;DHT22;11232;51.748;19.390;2022-12-18T13:57:33;-5.40;99.90
22132;DHT22;11232;51.748;19.390;2022-12-18T14:02:48;-5.50;99.90
22132;DHT22;11232;51.748;19.390;2022-12-18T14:05:37;-5.40;99.90
22132;DHT22;11232;51.748;19.390;2022-12-18T14:08:13;-5.50;99.90
22132;DHT22;11232;51.748;19.390;2022-12-18T14:10:44;-5.40;99.90
22132;DHT22;11232;51.748;19.390;2022-12-18T14:13:18;-5.70;99.90
22132;DHT22;11232;51.748;19.390;2022-12-18T14:15:47;-5.50;99.90
22132;DHT22;11232;51.748;19.390;2022-12-18T14:20:58;-5.20;99.90
22132;DHT22;11232;51.748;19.390;2022-12-18T14:23:42;-5.20;99.90
22132;DHT22;11232;51.748;19.390;2022-12-18T14:26:25;-5.30;99.90
22132;DHT22;11232;51.748;19.390;2022-12-18T14:28:58;-5.20;99.90
22132;DHT22;11232;51.748;19.390;2022-12-18T14:31:29;-5.40;99.90
22132;DHT22;11232;51.748;19.390;2022-12-18T14:33:55;-5.60;99.90
22132;DHT22;11232;51.748;19.390;2022-12-18T14:36:26;-5.50;99.90
22132;DHT22;11232;51.748;19.390;2022-12-18T14:38:54;-5.60;99.90
22132;DHT22;11232;51.748;19.390;2022-12-18T14:41:21;-5.50;99.90
22132;DHT22;11232;51.748;19.390;2022-12-18T14:43:50;-4.00;99.90
22132;DHT22;11232;51.748;19.390;2022-12-18T14:46:35;-4.40;99.90
22132;DHT22;11232;51.748;19.390;2022-12-18T14:49:04;-5.60;99.90
22132;DHT22;11232;51.748;19.390;2022-12-18T14:51:33;-5.50;99.90
22132;DHT22;11232;51.748;19.390;2022-12-18T14:54:01;-5.40;99.90
22132;DHT22;11232;51.748;19.390;2022-12-18T14:56:30;-5.40;99.90
22132;DHT22;11232;51.748;19.390;2022-12-18T14:59:04;-5.60;99.90
22132;DHT22;11232;51.748;19.390;2022-12-18T15:01:34;-4.70;99.90
22132;DHT22;11232;51.748;19.390;2022-12-18T15:04:01;-5.50;99.90
22132;DHT22;11232;51.748;19.390;2022-12-18T15:08:58;-5.60;99.90
22132;DHT22;11232;51.748;19.390;2022-12-18T15:11:57;-5.30;99.90
22132;DHT22;11232;51.748;19.390;2022-12-18T15:14:34;-5.40;99.90
22132;DHT22;11232;51.748;19.390;2022-12-18T15:17:14;-5.70;99.90
22132;DHT22;11232;51.748;19.390;2022-12-18T15:19:42;-3.40;99.90
22132;DHT22;11232;51.748;19.390;2022-12-18T15:22:21;-5.60;99.90
22132;DHT22;11232;51.748;19.390;2022-12-18T15:24:47;-5.60;99.90
22132;DHT22;11232;51.748;19.390;2022-12-18T15:27:28;-5.70;99.90
22132;DHT22;11232;51.748;19.390;2022-12-18T15:32:36;-5.60;99.90
22132;DHT22;11232;51.748;19.390;2022-12-18T15:37:39;-5.90;99.90
22132;DHT22;11232;51.748;19.390;2022-12-18T15:40:06;-6.30;99.90
22132;DHT22;11232;51.748;19.390;2022-12-18T15:42:33;-5.80;99.90
22132;DHT22;11232;51.748;19.390;2022-12-18T15:45:19;-6.10;99.90
22132;DHT22;11232;51.748;19.390;2022-12-18T15:47:45;-5.80;99.90
22132;DHT22;11232;51.748;19.390;2022-12-18T15:50:11;-5.80;99.90
22132;DHT22;11232;51.748;19.390;2022-12-18T15:52:41;-5.70;99.90
22132;DHT22;11232;51.748;19.390;2022-12-18T15:55:17;-5.80;99.90
22132;DHT22;11232;51.748;19.390;2022-12-18T15:58:02;-5.80;99.90
22132;DHT22;11232;51.748;19.390;2022-12-18T16:00:28;-5.90;99.90
22132;DHT22;11232;51.748;19.390;2022-12-18T16:02:53;-6.00;99.90
22132;DHT22;11232;51.748;19.390;2022-12-18T16:05:20;-6.00;99.90
22132;DHT22;11232;51.748;19.390;2022-12-18T16:07:47;-6.10;99.90
22132;DHT22;11232;51.748;19.390;2022-12-18T16:10:13;-6.20;99.90
22132;DHT22;11232;51.748;19.390;2022-12-18T16:12:39;-6.30;99.90
22132;DHT22;11232;51.748;19.390;2022-12-18T16:15:05;-6.20;99.90
22132;DHT22;11232;51.748;19.390;2022-12-18T16:17:31;-6.10;99.90
22132;DHT22;11232;51.748;19.390;2022-12-18T16:19:57;-6.00;99.90
22132;DHT22;11232;51.748;19.390;2022-12-18T16:22:26;-6.00;99.90
22132;DHT22;11232;51.748;19.390;2022-12-18T16:24:53;-6.10;99.90
22132;DHT22;11232;51.748;19.390;2022-12-18T16:27:20;-5.90;99.90
22132;DHT22;11232;51.748;19.390;2022-12-18T16:29:46;-5.40;99.90
22132;DHT22;11232;51.748;19.390;2022-12-18T16:32:14;-6.00;99.90
22132;DHT22;11232;51.748;19.390;2022-12-18T16:34:40;-5.90;99.90
22132;DHT22;11232;51.748;19.390;2022-12-18T16:37:08;-6.00;99.90
22132;DHT22;11232;51.748;19.390;2022-12-18T16:39:35;-6.00;99.90
22132;DHT22;11232;51.748;19.390;2022-12-18T16:42:10;-5.90;99.90
22132;DHT22;11232;51.748;19.390;2022-12-18T16:44:42;-6.10;99.90
22132;DHT22;11232;51.748;19.390;2022-12-18T16:47:08;-6.20;99.90
22132;DHT22;11232;51.748;19.390;2022-12-18T16:49:33;-6.30;99.90
22132;DHT22;11232;51.748;19.390;2022-12-18T16:51:59;-6.30;99.90
22132;DHT22;11232;51.748;19.390;2022-12-18T16:54:24;-6.20;99.90
22132;DHT22;11232;51.748;19.390;2022-12-18T16:56:51;-6.10;99.90
22132;DHT22;11232;51.748;19.390;2022-12-18T16:59:17;-6.10;99.90
22132;DHT22;11232;51.748;19.390;2022-12-18T17:01:42;-6.10;99.90
22132;DHT22;11232;51.748;19.390;2022-12-18T17:04:08;-6.10;99.90
22132;DHT22;11232;51.748;19.390;2022-12-18T17:06:38;-6.00;99.90
22132;DHT22;11232;51.748;19.390;2022-12-18T17:09:06;-6.00;99.90
22132;DHT22;11232;51.748;19.390;2022-12-18T17:11:34;-6.10;99.90
22132;DHT22;11232;51.748;19.390;2022-12-18T17:14:05;-6.40;99.90
22132;DHT22;11232;51.748;19.390;2022-12-18T17:16:31;-6.20;99.90
22132;DHT22;11232;51.748;19.390;2022-12-18T17:18:56;-6.20;99.90